Terminal Aerodrome Forecast
Issued by NWS

Home | Current Version | Previous Version | Text Only | Print | Product List | Glossary On
Versions: 1 2 3 4 5 6 7 8 9 10 11 12 13 14 15 16 17 18 19 20 21 22 23 24
000
FTUS45 KREV 011700
TAFTRK
TAF
KTRK 011726Z 0118/0218 VRB03KT P6SM BKN200
     FM012000 28011KT P6SM SCT100 BKN180
     FM020000 29008KT P6SM VCSH SCT040 BKN080
     FM020500 VRB03KT P6SM VCSH SCT050 BKN100
     FM021200 04006KT P6SM SCT060 BKN120=

USA.gov is the U.S. government's official web portal to all federal, state and local government web resources and services.